Time;durP1;ratioP1;P1;durP2;ratioP2;P2;SDS_P1;SDS_P2;PMS_P1;PMS_P2;Temp;Humidity;BMP_temperature;BMP_pressure;BME280_temperature;BME280_humidity;BME280_pressure;Samples;Min_cycle;Max_cycle;Signal;HPM_P1;HPM_P2
2022/10/12 00:00:38;;;;;;;6.90;2.90;;;13.80;98.00;;;;;;5051280;28;20962;-68
2022/10/12 00:03:05;;;;;;;7.43;3.60;;;13.80;98.00;;;;;;5051404;28;20461;-68
2022/10/12 00:05:32;;;;;;;6.27;3.40;;;13.80;98.00;;;;;;5033650;28;20960;-68
2022/10/12 00:08:01;;;;;;;10.03;4.60;;;13.80;98.00;;;;;;5050204;28;20459;-68
2022/10/12 00:10:28;;;;;;;7.00;3.77;;;13.70;98.00;;;;;;5033744;28;20465;-67
2022/10/12 00:12:57;;;;;;;5.33;2.90;;;13.80;98.00;;;;;;5051238;28;20504;-67
2022/10/12 00:15:24;;;;;;;5.27;3.20;;;13.80;98.00;;;;;;5051243;28;20467;-67
2022/10/12 00:17:52;;;;;;;5.87;3.60;;;13.90;98.00;;;;;;5051227;28;20467;-67
2022/10/12 00:20:19;;;;;;;5.17;3.53;;;13.80;98.00;;;;;;5051076;28;20460;-67
2022/10/12 00:22:46;;;;;;;7.23;3.03;;;13.80;98.00;;;;;;5051242;28;20525;-68
2022/10/12 00:25:15;;;;;;;5.80;3.00;;;13.70;98.00;;;;;;5051321;28;20945;-68
2022/10/12 00:27:42;;;;;;;6.10;3.40;;;13.70;98.00;;;;;;5050901;28;20483;-68
2022/10/12 00:30:11;;;;;;;9.23;3.00;;;13.70;98.00;;;;;;5050886;28;20456;-68
2022/10/12 00:32:38;;;;;;;5.37;3.30;;;13.70;98.00;;;;;;5034572;28;20482;-68
2022/10/12 00:35:06;;;;;;;3.80;2.70;;;13.70;98.00;;;;;;5054942;28;20457;-67
2022/10/12 00:37:33;;;;;;;5.37;2.80;;;13.60;98.00;;;;;;5053817;28;20944;-67
2022/10/12 00:40:00;;;;;;;9.47;4.50;;;13.40;98.00;;;;;;5055029;28;20489;-67
2022/10/12 00:42:29;;;;;;;8.37;3.73;;;13.50;98.00;;;;;;5055073;28;20463;-67
2022/10/12 00:44:56;;;;;;;5.93;3.07;;;13.50;98.00;;;;;;5053550;28;21005;-67
2022/10/12 00:47:28;;;;;;;11.60;3.40;;;13.40;98.00;;;;;;5053681;28;20474;-68
2022/10/12 00:50:00;;;;;;;4.70;3.07;;;13.40;98.00;;;;;;5054726;28;20496;-67
2022/10/12 00:52:36;;;;;;;5.40;3.20;;;13.30;98.00;;;;;;5054795;28;20876;-67
2022/10/12 00:55:05;;;;;;;3.63;2.53;;;13.10;98.00;;;;;;5054924;28;20466;-67
2022/10/12 00:57:34;;;;;;;5.00;3.33;;;13.00;98.00;;;;;;5054667;28;20470;-67
2022/10/12 01:00:06;;;;;;;7.33;3.23;;;13.00;98.00;;;;;;5053231;28;20487;-67
2022/10/12 01:02:35;;;;;;;6.67;3.67;;;13.10;98.00;;;;;;5054737;28;20459;-67
2022/10/12 01:05:02;;;;;;;4.17;2.87;;;13.00;98.00;;;;;;5054618;28;20465;-67
2022/10/12 01:07:30;;;;;;;14.37;3.07;;;13.00;98.00;;;;;;5053501;28;20479;-68
2022/10/12 01:09:57;;;;;;;3.90;2.60;;;12.90;98.00;;;;;;5054804;28;20958;-68
2022/10/12 01:12:25;;;;;;;4.80;3.00;;;12.70;98.00;;;;;;5053408;28;20491;-68
2022/10/12 01:14:57;;;;;;;4.83;2.63;;;12.50;98.00;;;;;;5054536;28;20454;-67
2022/10/12 01:17:34;;;;;;;5.10;2.70;;;12.50;98.00;;;;;;5053036;28;20978;-67
2022/10/12 01:20:32;;;;;;;7.47;3.13;;;12.60;98.00;;;;;;5054152;28;20491;-67
2022/10/12 01:23:19;;;;;;;5.37;3.60;;;12.60;98.00;;;;;;5053081;28;20980;-68
2022/10/12 01:26:02;;;;;;;3.43;2.23;;;12.50;98.00;;;;;;5054286;28;20866;-67
2022/10/12 01:28:41;;;;;;;5.53;3.03;;;12.60;98.00;;;;;;5036539;28;21021;-67
2022/10/12 01:31:20;;;;;;;7.40;4.17;;;12.60;98.00;;;;;;5053960;28;20469;-67
2022/10/12 01:33:54;;;;;;;12.53;2.83;;;12.60;98.00;;;;;;5054052;28;20476;-68
2022/10/12 01:36:30;;;;;;;3.57;2.23;;;12.70;98.00;;;;;;5052724;28;21004;-67
2022/10/12 01:39:04;;;;;;;6.40;3.23;;;12.60;98.00;;;;;;5053996;28;20547;-67
2022/10/12 01:41:37;;;;;;;4.80;3.87;;;12.60;98.00;;;;;;5053818;28;20463;-67
2022/10/12 01:44:06;;;;;;;5.63;3.10;;;12.70;98.00;;;;;;5052673;28;20453;-67
2022/10/12 01:46:44;;;;;;;5.70;3.27;;;12.80;98.00;;;;;;5053570;28;20479;-67
2022/10/12 01:49:12;;;;;;;5.87;3.30;;;12.80;98.00;;;;;;5053639;28;20490;-68
2022/10/12 01:52:16;;;;;;;4.77;3.20;;;12.80;98.00;;;;;;5052486;28;20882;-67
2022/10/12 01:55:06;;;;;;;6.40;3.07;;;12.70;98.00;;;;;;4991928;28;20549;-67
2022/10/12 01:57:44;;;;;;;4.37;2.77;;;12.80;98.00;;;;;;5046624;28;20474;-67
2022/10/12 02:00:13;;;;;;;4.00;2.97;;;12.90;98.00;;;;;;5052438;28;20488;-67
2022/10/12 02:02:52;;;;;;;4.60;3.10;;;12.90;98.00;;;;;;5052585;28;20827;-68
2022/10/12 02:05:27;;;;;;;5.60;2.93;;;12.60;98.00;;;;;;5053509;28;20541;-67
2022/10/12 02:08:00;;;;;;;4.17;2.80;;;12.50;98.00;;;;;;5052629;28;20454;-67
2022/10/12 02:10:31;;;;;;;5.90;3.73;;;12.40;98.00;;;;;;5053467;28;20525;-67
2022/10/12 02:13:01;;;;;;;8.80;3.30;;;12.50;98.00;;;;;;5053569;28;20454;-68
2022/10/12 02:15:29;;;;;;;6.03;3.43;;;12.40;98.00;;;;;;5053288;28;20468;-68
2022/10/12 02:17:58;;;;;;;6.67;3.53;;;12.30;98.00;;;;;;5053275;28;20864;-67
2022/10/12 02:20:27;;;;;;;4.57;2.57;;;12.30;98.00;;;;;;5053278;28;20910;-67
2022/10/12 02:22:56;;;;;;;7.47;3.20;;;12.30;98.00;;;;;;5053386;28;21007;-68
2022/10/12 02:25:26;;;;;;;6.47;3.20;;;12.40;98.00;;;;;;5051971;28;20453;-67
2022/10/12 02:27:59;;;;;;;4.90;3.03;;;12.60;98.00;;;;;;5053193;28;20549;-67
2022/10/12 02:30:26;;;;;;;5.60;2.63;;;12.50;98.00;;;;;;5035746;28;20459;-68
2022/10/12 02:33:00;;;;;;;18.33;2.60;;;12.50;98.00;;;;;;5053045;28;20464;-68
2022/10/12 02:35:35;;;;;;;6.03;3.23;;;12.50;98.00;;;;;;5053147;28;20475;-67
2022/10/12 02:38:08;;;;;;;8.20;3.83;;;12.30;98.00;;;;;;5052819;28;20465;-67
2022/10/12 02:40:40;;;;;;;5.30;3.00;;;12.20;98.00;;;;;;5051565;28;20486;-67
2022/10/12 02:43:13;;;;;;;5.33;2.77;;;12.20;98.00;;;;;;5052690;28;20461;-67
2022/10/12 02:45:43;;;;;;;7.40;3.77;;;12.20;98.00;;;;;;5052751;28;21014;-67
2022/10/12 02:48:16;;;;;;;4.47;3.17;;;12.20;98.00;;;;;;5051281;28;20460;-67
2022/10/12 02:50:46;;;;;;;6.00;2.97;;;12.10;98.00;;;;;;5052844;28;20462;-67
2022/10/12 02:53:15;;;;;;;4.33;2.90;;;12.10;98.00;;;;;;5052612;28;20464;-67
2022/10/12 02:55:48;;;;;;;4.37;2.83;;;12.10;98.00;;;;;;5052005;28;20447;-68
2022/10/12 02:58:15;;;;;;;6.60;3.50;;;12.20;98.00;;;;;;5052444;28;20830;-67
2022/10/12 03:00:42;;;;;;;10.77;3.50;;;12.20;98.00;;;;;;5052615;28;20490;-67
2022/10/12 03:03:09;;;;;;;6.03;3.17;;;12.10;98.00;;;;;;5052484;28;20450;-68
2022/10/12 03:05:38;;;;;;;5.30;3.07;;;12.10;98.00;;;;;;5051362;28;20461;-67
2022/10/12 03:08:06;;;;;;;4.30;2.83;;;12.10;98.00;;;;;;5052470;28;20891;-66
2022/10/12 03:10:36;;;;;;;5.10;3.00;;;12.10;98.00;;;;;;5052440;28;20459;-67
2022/10/12 03:13:06;;;;;;;5.57;3.20;;;12.00;98.00;;;;;;5052273;28;20476;-67
2022/10/12 03:15:34;;;;;;;4.67;2.93;;;12.00;98.00;;;;;;5050985;28;20456;-67
2022/10/12 03:18:01;;;;;;;6.40;2.60;;;12.10;98.00;;;;;;5052107;28;20453;-67
2022/10/12 03:20:28;;;;;;;3.83;2.40;;;12.00;98.00;;;;;;5051907;28;20488;-67
2022/10/12 03:22:57;;;;;;;5.50;3.03;;;12.10;98.00;;;;;;5052320;28;20468;-67
2022/10/12 03:25:25;;;;;;;10.90;3.77;;;12.10;98.00;;;;;;5052110;28;20457;-68
2022/10/12 03:27:52;;;;;;;4.10;2.87;;;12.20;98.00;;;;;;5052127;28;20465;-67
2022/10/12 03:30:19;;;;;;;6.27;3.07;;;12.20;98.00;;;;;;5051803;28;20461;-67
2022/10/12 03:32:46;;;;;;;6.33;3.30;;;12.10;98.00;;;;;;5052057;28;20465;-68
2022/10/12 03:35:14;;;;;;;5.67;3.27;;;12.10;98.00;;;;;;5051691;28;20550;-67
2022/10/12 03:37:41;;;;;;;6.07;3.50;;;12.10;98.00;;;;;;5051901;28;20452;-67
2022/10/12 03:40:10;;;;;;;5.60;2.83;;;12.20;98.00;;;;;;5050650;28;20879;-67
2022/10/12 03:42:37;;;;;;;13.30;3.57;;;12.50;98.00;;;;;;5051743;28;20512;-66
2022/10/12 03:45:05;;;;;;;6.37;2.83;;;12.60;98.00;;;;;;5051336;28;20508;-67
2022/10/12 03:47:38;;;;;;;8.00;4.00;;;12.50;98.00;;;;;;5051444;28;20480;-67
2022/10/12 03:50:06;;;;;;;10.60;3.80;;;12.50;98.00;;;;;;5051923;28;20476;-67
2022/10/12 03:52:33;;;;;;;5.73;3.73;;;12.50;98.00;;;;;;5051744;28;20468;-67
2022/10/12 03:55:01;;;;;;;7.70;3.53;;;12.50;98.00;;;;;;5051430;28;20457;-67
2022/10/12 03:57:29;;;;;;;4.60;3.33;;;12.40;98.00;;;;;;5051438;28;20520;-68
2022/10/12 03:59:56;;;;;;;5.93;3.20;;;12.30;98.00;;;;;;5051513;28;20488;-67
2022/10/12 04:02:23;;;;;;;6.03;2.90;;;12.30;98.00;;;;;;5051504;28;20471;-67
2022/10/12 04:04:50;;;;;;;5.80;3.27;;;12.40;98.00;;;;;;5051367;28;20464;-67
2022/10/12 04:07:17;;;;;;;5.00;3.03;;;12.60;98.00;;;;;;5050804;28;20454;-67
2022/10/12 04:09:52;;;;;;;6.93;3.33;;;12.70;98.00;;;;;;5051434;28;20466;-67
2022/10/12 04:12:19;;;;;;;4.60;3.17;;;12.80;98.00;;;;;;5051355;28;20545;-67
2022/10/12 04:14:47;;;;;;;3.93;2.67;;;12.90;98.00;;;;;;5051359;28;20462;-67
2022/10/12 04:17:16;;;;;;;6.50;3.10;;;12.80;98.00;;;;;;5051297;28;20466;-67
2022/10/12 04:19:43;;;;;;;6.90;3.50;;;12.60;98.00;;;;;;5050994;28;20579;-67
2022/10/12 04:22:10;;;;;;;5.73;3.30;;;12.50;98.00;;;;;;5051420;28;20982;-68
2022/10/12 04:24:37;;;;;;;6.43;3.60;;;12.50;98.00;;;;;;5051484;28;20848;-67
2022/10/12 04:27:04;;;;;;;8.47;3.17;;;12.40;98.00;;;;;;5051084;28;20457;-67
2022/10/12 04:29:31;;;;;;;4.97;3.20;;;12.40;98.00;;;;;;5051167;28;20824;-67
2022/10/12 04:32:00;;;;;;;4.13;2.43;;;12.40;98.00;;;;;;5051284;28;20867;-67
2022/10/12 04:34:27;;;;;;;5.73;3.23;;;12.20;98.00;;;;;;5051177;28;20778;-67
2022/10/12 04:36:54;;;;;;;7.23;3.20;;;12.30;98.00;;;;;;5051097;28;20903;-67
2022/10/12 04:39:21;;;;;;;6.07;3.53;;;12.40;98.00;;;;;;5051020;28;20822;-67
2022/10/12 04:41:48;;;;;;;7.47;3.23;;;12.40;98.00;;;;;;5051047;28;20471;-67
2022/10/12 04:44:15;;;;;;;5.97;3.47;;;12.40;98.00;;;;;;5050849;28;20957;-67
2022/10/12 04:46:42;;;;;;;6.30;3.70;;;12.50;98.00;;;;;;5050865;28;20520;-67
2022/10/12 04:49:15;;;;;;;4.70;3.17;;;12.40;98.00;;;;;;5050975;28;20452;-67
2022/10/12 04:51:42;;;;;;;6.87;3.63;;;12.50;98.00;;;;;;5050945;28;20516;-67
2022/10/12 04:54:10;;;;;;;7.03;3.43;;;12.40;98.00;;;;;;5051116;28;20464;-67
2022/10/12 04:56:37;;;;;;;5.20;2.77;;;12.30;98.00;;;;;;5050931;28;20457;-67
2022/10/12 04:59:04;;;;;;;6.93;3.30;;;12.30;98.00;;;;;;5050751;28;20871;-67
2022/10/12 05:01:31;;;;;;;6.70;4.07;;;12.30;98.00;;;;;;5050929;28;20449;-68
2022/10/12 05:03:59;;;;;;;3.60;2.50;;;12.20;98.00;;;;;;5050925;28;20847;-67
2022/10/12 05:06:28;;;;;;;7.07;3.80;;;12.20;98.00;;;;;;5050924;28;20540;-67
2022/10/12 05:08:55;;;;;;;5.63;3.37;;;12.20;98.00;;;;;;5051135;28;20499;-68
2022/10/12 05:11:22;;;;;;;6.70;3.20;;;12.10;98.00;;;;;;5050948;28;20949;-67
2022/10/12 05:13:49;;;;;;;5.10;2.90;;;12.10;98.00;;;;;;5050845;28;20459;-67
2022/10/12 05:16:16;;;;;;;6.10;3.07;;;12.10;98.00;;;;;;5049647;28;20451;-68
2022/10/12 05:18:43;;;;;;;5.67;3.23;;;12.10;98.00;;;;;;5051942;28;20474;-67
2022/10/12 05:21:10;;;;;;;5.70;3.13;;;12.20;98.00;;;;;;5053190;28;20570;-67
2022/10/12 05:23:38;;;;;;;7.30;3.50;;;12.20;98.00;;;;;;5054313;28;20453;-67
2022/10/12 05:26:05;;;;;;;4.27;2.80;;;12.20;98.00;;;;;;5054128;28;20521;-67
2022/10/12 05:28:32;;;;;;;6.93;3.20;;;12.20;98.00;;;;;;5054235;28;20508;-67
2022/10/12 05:31:00;;;;;;;3.00;2.50;;;12.10;98.00;;;;;;5054232;28;20941;-67
2022/10/12 05:33:27;;;;;;;7.60;3.27;;;12.10;98.00;;;;;;5052772;28;20462;-68
2022/10/12 05:35:54;;;;;;;4.20;3.10;;;12.20;98.00;;;;;;5054245;28;20536;-68
2022/10/12 05:38:21;;;;;;;4.23;2.40;;;12.20;98.00;;;;;;5054375;28;20463;-67
2022/10/12 05:40:49;;;;;;;5.30;3.27;;;12.20;98.00;;;;;;5053999;28;20844;-67
2022/10/12 05:43:16;;;;;;;9.63;3.20;;;12.30;98.00;;;;;;5052549;28;20460;-67
2022/10/12 05:45:45;;;;;;;5.77;3.17;;;12.30;98.00;;;;;;5053826;28;20883;-67
2022/10/12 05:48:13;;;;;;;5.23;3.30;;;12.30;98.00;;;;;;5053417;28;20466;-68
2022/10/12 05:50:40;;;;;;;4.70;2.87;;;12.40;98.00;;;;;;5054007;28;20472;-68
2022/10/12 05:53:07;;;;;;;3.87;2.57;;;12.40;98.00;;;;;;5053707;28;20515;-67
2022/10/12 05:55:34;;;;;;;5.47;3.30;;;12.50;98.00;;;;;;5052331;28;20457;-67
2022/10/12 05:58:03;;;;;;;3.80;2.73;;;12.50;98.00;;;;;;5053662;28;20524;-67
2022/10/12 06:00:30;;;;;;;5.00;3.27;;;12.60;98.00;;;;;;5053402;28;20486;-67
2022/10/12 06:02:58;;;;;;;3.50;2.60;;;12.50;98.00;;;;;;5053780;28;20451;-67
2022/10/12 06:05:25;;;;;;;4.27;2.43;;;12.30;98.00;;;;;;5052270;28;21023;-67
2022/10/12 06:07:52;;;;;;;4.23;2.67;;;12.30;98.00;;;;;;5053919;28;20823;-68
2022/10/12 06:10:19;;;;;;;5.20;3.10;;;12.30;98.00;;;;;;5053850;28;20456;-67
2022/10/12 06:12:46;;;;;;;5.47;2.53;;;12.20;98.00;;;;;;5053379;28;20979;-67
2022/10/12 06:15:15;;;;;;;4.93;2.83;;;12.10;98.00;;;;;;5053343;28;20460;-68
2022/10/12 06:17:42;;;;;;;4.33;3.30;;;12.20;98.00;;;;;;5053061;28;20457;-67
2022/10/12 06:20:10;;;;;;;6.07;3.13;;;12.30;98.00;;;;;;5053195;28;20487;-67
2022/10/12 06:22:37;;;;;;;4.57;3.50;;;12.40;98.00;;;;;;5052892;28;20467;-67
2022/10/12 06:25:06;;;;;;;4.10;2.47;;;12.50;98.00;;;;;;5053155;28;20455;-67
2022/10/12 06:27:33;;;;;;;5.10;3.07;;;12.50;98.00;;;;;;5052944;28;20465;-67
2022/10/12 06:30:00;;;;;;;7.90;3.70;;;12.60;98.00;;;;;;5052206;28;20485;-67
2022/10/12 06:32:29;;;;;;;5.70;2.90;;;12.80;98.00;;;;;;5053037;28;20525;-67
2022/10/12 06:34:56;;;;;;;4.07;2.40;;;13.00;98.00;;;;;;5052872;28;20468;-67
2022/10/12 06:37:23;;;;;;;4.63;2.70;;;13.00;98.00;;;;;;5052963;28;20455;-68
2022/10/12 06:39:50;;;;;;;5.00;2.73;;;12.90;98.00;;;;;;5051677;28;20519;-63
2022/10/12 06:42:17;;;;;;;2.87;2.47;;;12.80;98.00;;;;;;5052748;28;20469;-63
2022/10/12 06:44:44;;;;;;;6.53;3.60;;;13.00;98.00;;;;;;5051431;28;20459;-64
2022/10/12 06:47:11;;;;;;;5.70;3.20;;;13.20;98.00;;;;;;5051408;28;20473;-64
2022/10/12 06:49:40;;;;;;;5.90;3.03;;;13.20;98.00;;;;;;5052619;28;20457;-64
2022/10/12 06:52:07;;;;;;;9.57;3.53;;;13.10;98.00;;;;;;5051461;28;20461;-64
2022/10/12 06:54:36;;;;;;;2.73;2.37;;;13.10;98.00;;;;;;5053092;28;20453;-64
2022/10/12 06:57:05;;;;;;;2.80;2.13;;;13.00;98.00;;;;;;5051507;28;20467;-64
2022/10/12 06:59:33;;;;;;;5.47;2.77;;;13.10;98.00;;;;;;5052355;28;20457;-64
2022/10/12 07:02:00;;;;;;;4.27;3.00;;;13.10;98.00;;;;;;5052614;28;20515;-64
2022/10/12 07:04:28;;;;;;;5.73;2.90;;;13.20;98.00;;;;;;5052574;28;20465;-64
2022/10/12 07:06:56;;;;;;;5.23;2.90;;;13.30;98.00;;;;;;5051548;28;20473;-64
2022/10/12 07:09:23;;;;;;;5.50;3.37;;;13.20;98.00;;;;;;5052358;28;20461;-64
2022/10/12 07:11:50;;;;;;;5.90;2.90;;;13.40;98.00;;;;;;5052335;28;20454;-64
2022/10/12 07:14:17;;;;;;;7.90;3.87;;;13.50;98.00;;;;;;5052056;28;20458;-64
2022/10/12 07:16:44;;;;;;;8.13;3.60;;;13.60;98.00;;;;;;5052205;28;20484;-64
2022/10/12 07:19:11;;;;;;;7.93;3.90;;;13.70;98.00;;;;;;5052096;28;20902;-64
2022/10/12 07:21:39;;;;;;;4.90;3.13;;;13.70;98.00;;;;;;5052247;28;20477;-64
2022/10/12 07:24:11;;;;;;;8.17;3.53;;;13.70;98.00;;;;;;5051793;28;20456;-64
2022/10/12 07:26:38;;;;;;;6.47;3.40;;;13.90;98.00;;;;;;5051957;28;20469;-64
2022/10/12 07:29:06;;;;;;;5.73;3.50;;;13.80;98.00;;;;;;5050690;28;20854;-63
2022/10/12 07:31:33;;;;;;;4.37;2.90;;;13.90;98.00;;;;;;5052071;28;20462;-64
2022/10/12 07:34:01;;;;;;;6.13;3.80;;;14.10;98.00;;;;;;5051874;28;20466;-64
2022/10/12 07:36:28;;;;;;;5.37;3.50;;;14.10;98.00;;;;;;5051761;28;20465;-64
2022/10/12 07:38:55;;;;;;;6.30;3.47;;;14.00;98.00;;;;;;5051667;28;20528;-64
2022/10/12 07:41:24;;;;;;;5.50;3.37;;;14.00;98.00;;;;;;5051255;28;20494;-64
2022/10/12 07:43:55;;;;;;;8.87;3.40;;;14.10;98.00;;;;;;5051079;28;20454;-64
2022/10/12 07:46:24;;;;;;;7.53;3.73;;;14.20;98.00;;;;;;5051464;28;20501;-64
2022/10/12 07:48:51;;;;;;;10.37;4.27;;;14.20;98.00;;;;;;5051520;28;20972;-64
2022/10/12 07:51:19;;;;;;;9.40;4.70;;;14.10;98.00;;;;;;5047250;28;20484;-63
2022/10/12 07:53:46;;;;;;;8.10;3.67;;;14.10;98.00;;;;;;5047360;28;20462;-64
2022/10/12 07:56:17;;;;;;;5.60;3.70;;;14.00;98.00;;;;;;5047997;28;20957;-63
2022/10/12 07:58:48;;;;;;;14.60;4.53;;;14.10;98.00;;;;;;5047990;28;20759;-64
2022/10/12 08:01:16;;;;;;;7.40;3.93;;;14.10;98.00;;;;;;5049129;28;20533;-64
2022/10/12 08:03:43;;;;;;;12.47;4.20;;;14.20;98.00;;;;;;5049087;28;21179;-64
2022/10/12 08:06:11;;;;;;;11.60;3.67;;;14.30;98.00;;;;;;5049099;28;20468;-64
2022/10/12 08:08:38;;;;;;;7.53;4.10;;;14.50;98.00;;;;;;5049196;28;20844;-64
2022/10/12 08:11:06;;;;;;;5.87;3.27;;;14.60;98.00;;;;;;5049138;28;20462;-63
2022/10/12 08:13:34;;;;;;;8.47;3.53;;;14.80;98.00;;;;;;5049215;28;20455;-64
2022/10/12 08:16:04;;;;;;;6.83;3.77;;;14.90;98.00;;;;;;5048664;28;20466;-64
2022/10/12 08:18:32;;;;;;;7.20;3.50;;;15.00;98.00;;;;;;5048713;28;20461;-64
2022/10/12 08:20:59;;;;;;;7.97;4.20;;;15.10;98.00;;;;;;5048636;28;20495;-64
2022/10/12 08:23:26;;;;;;;8.33;3.90;;;15.10;98.00;;;;;;5048871;28;20457;-64
2022/10/12 08:25:54;;;;;;;7.73;4.07;;;15.10;98.00;;;;;;5048613;28;20465;-64
2022/10/12 08:28:22;;;;;;;7.63;3.73;;;15.20;98.00;;;;;;5048526;28;20854;-64
2022/10/12 08:30:50;;;;;;;10.67;4.93;;;15.10;98.00;;;;;;5048623;28;20472;-64
2022/10/12 08:33:27;;;;;;;9.00;4.17;;;15.10;98.00;;;;;;5048735;28;20460;-64
2022/10/12 08:35:54;;;;;;;9.30;4.53;;;15.20;98.00;;;;;;5048710;28;20489;-64
2022/10/12 08:38:21;;;;;;;7.03;3.60;;;15.20;98.00;;;;;;5050575;28;20468;-64
2022/10/12 08:40:56;;;;;;;8.83;4.40;;;15.30;98.00;;;;;;5055571;28;20500;-64
2022/10/12 08:43:35;;;;;;;8.40;4.10;;;15.20;98.00;;;;;;5048446;28;20518;-64
2022/10/12 08:46:04;;;;;;;10.70;4.67;;;15.10;98.00;;;;;;5047062;28;20492;-64
2022/10/12 08:48:36;;;;;;;10.03;4.53;;;15.20;98.00;;;;;;5048604;28;20456;-65
2022/10/12 08:51:06;;;;;;;8.50;4.23;;;15.40;98.00;;;;;;5045385;28;20458;-66
2022/10/12 08:53:44;;;;;;;9.13;4.27;;;15.60;98.00;;;;;;5049344;28;20457;-65
2022/10/12 08:56:11;;;;;;;18.63;4.97;;;15.70;98.00;;;;;;5052342;28;20874;-65
2022/10/12 08:58:39;;;;;;;7.13;3.83;;;15.70;98.00;;;;;;5052379;28;20460;-66
2022/10/12 09:01:15;;;;;;;12.87;5.30;;;15.80;98.00;;;;;;5052610;28;20491;-66
2022/10/12 09:03:53;;;;;;;9.70;4.47;;;15.90;98.00;;;;;;5052720;28;20853;-66
2022/10/12 09:06:24;;;;;;;15.97;4.90;;;15.70;98.00;;;;;;5051322;28;20955;-66
2022/10/12 09:09:02;;;;;;;11.30;4.27;;;15.70;98.00;;;;;;5052885;28;20483;-66
2022/10/12 09:11:48;;;;;;;6.57;4.03;;;15.80;98.00;;;;;;5051494;28;20461;-66
2022/10/12 09:14:22;;;;;;;9.23;5.07;;;16.00;98.00;;;;;;5050503;28;20809;-66
2022/10/12 09:16:54;;;;;;;9.53;3.77;;;16.10;98.00;;;;;;5052159;28;20545;-66
2022/10/12 09:19:29;;;;;;;8.83;4.70;;;16.10;98.00;;;;;;5051892;28;20469;-66
2022/10/12 09:21:57;;;;;;;11.63;5.20;;;16.00;98.00;;;;;;5051997;28;20580;-66
2022/10/12 09:24:27;;;;;;;7.20;4.67;;;16.00;98.00;;;;;;5052745;28;20458;-66
2022/10/12 09:26:59;;;;;;;16.00;4.63;;;16.10;98.00;;;;;;5051698;28;20466;-66
2022/10/12 09:29:28;;;;;;;11.80;5.00;;;16.00;98.00;;;;;;5052123;28;20476;-66
2022/10/12 09:32:23;;;;;;;6.90;4.20;;;16.00;98.00;;;;;;5052363;28;20820;-66
2022/10/12 09:34:52;;;;;;;11.83;4.37;;;16.00;98.00;;;;;;5049967;28;20462;-67
2022/10/12 09:37:21;;;;;;;10.47;4.47;;;16.10;98.00;;;;;;5051948;28;20832;-67
2022/10/12 09:39:49;;;;;;;11.10;4.97;;;16.10;98.00;;;;;;5051748;28;20637;-66
2022/10/12 09:42:17;;;;;;;10.27;5.40;;;16.20;98.00;;;;;;5051834;28;20496;-67
2022/10/12 09:44:47;;;;;;;10.03;4.40;;;16.20;98.00;;;;;;5050237;28;20461;-67
2022/10/12 09:47:27;;;;;;;10.00;4.00;;;16.20;98.00;;;;;;5051701;28;20469;-66
2022/10/12 09:50:13;;;;;;;7.23;3.77;;;16.20;98.00;;;;;;5049255;28;20501;-65
2022/10/12 09:52:43;;;;;;;14.60;4.80;;;16.30;98.00;;;;;;5051103;28;20950;-66
2022/10/12 09:55:25;;;;;;;8.60;4.00;;;16.40;98.00;;;;;;5051515;28;20519;-66
2022/10/12 09:57:55;;;;;;;7.67;3.57;;;16.50;98.00;;;;;;5051253;28;20476;-65
2022/10/12 10:00:25;;;;;;;7.80;4.20;;;16.60;98.00;;;;;;5051126;28;20459;-66
2022/10/12 10:02:54;;;;;;;10.17;4.27;;;16.60;98.00;;;;;;5051253;28;20501;-66
2022/10/12 10:05:31;;;;;;;12.63;3.47;;;16.60;98.00;;;;;;5050216;28;20466;-66
2022/10/12 10:08:19;;;;;;;7.77;3.50;;;16.70;98.00;;;;;;5051208;28;20960;-66
2022/10/12 10:10:50;;;;;;;8.43;3.63;;;16.60;98.00;;;;;;5049744;28;20457;-67
2022/10/12 10:13:18;;;;;;;12.90;4.30;;;16.70;98.00;;;;;;5048526;28;20469;-65
2022/10/12 10:15:48;;;;;;;10.37;4.10;;;16.70;98.00;;;;;;5050836;28;20461;-66
2022/10/12 10:18:26;;;;;;;8.23;4.10;;;16.70;98.00;;;;;;5050829;28;20840;-66
2022/10/12 10:20:57;;;;;;;13.40;4.20;;;16.70;98.00;;;;;;5050714;28;20862;-66
2022/10/12 10:23:26;;;;;;;9.57;4.20;;;16.80;98.00;;;;;;5050684;28;20507;-66
2022/10/12 10:25:57;;;;;;;6.20;3.70;;;16.80;98.00;;;;;;5049502;28;20496;-66
2022/10/12 10:28:28;;;;;;;9.07;3.20;;;16.80;98.00;;;;;;5050897;28;20782;-66
2022/10/12 10:30:59;;;;;;;6.67;3.30;;;16.80;98.00;;;;;;5050720;28;20960;-66
2022/10/12 10:33:26;;;;;;;7.63;3.63;;;16.70;98.00;;;;;;5050863;28;20454;-66
2022/10/12 10:36:08;;;;;;;11.40;3.97;;;16.70;98.00;;;;;;5050360;28;20496;-66
2022/10/12 10:38:53;;;;;;;8.07;3.13;;;16.80;98.00;;;;;;5050513;28;20465;-66
2022/10/12 10:41:24;;;;;;;5.80;3.27;;;16.90;98.00;;;;;;5050474;28;20597;-66
2022/10/12 10:43:51;;;;;;;5.30;3.23;;;17.00;98.00;;;;;;5050920;28;20449;-66
2022/10/12 10:46:24;;;;;;;8.17;3.80;;;17.00;98.00;;;;;;5050396;28;20461;-66
2022/10/12 10:48:57;;;;;;;5.80;3.77;;;17.00;98.00;;;;;;5050570;28;20469;-66
2022/10/12 10:51:41;;;;;;;7.73;3.67;;;17.00;98.00;;;;;;5048117;28;20468;-67
2022/10/12 10:54:17;;;;;;;9.17;4.60;;;17.00;98.00;;;;;;5050072;28;20458;-66
2022/10/12 10:56:46;;;;;;;7.27;3.33;;;17.00;98.00;;;;;;5050061;28;20894;-66
2022/10/12 10:59:19;;;;;;;10.07;4.10;;;17.00;98.00;;;;;;5050163;28;20541;-66
2022/10/12 11:01:52;;;;;;;9.60;4.50;;;17.20;98.00;;;;;;5050057;28;20995;-66
2022/10/12 11:04:23;;;;;;;9.80;4.30;;;17.30;98.00;;;;;;5049898;28;20971;-66
2022/10/12 11:06:56;;;;;;;13.97;5.43;;;17.40;98.00;;;;;;5050205;28;20457;-66
2022/10/12 11:09:29;;;;;;;4.73;3.00;;;17.40;98.00;;;;;;5048847;28;20516;-66
2022/10/12 11:11:59;;;;;;;11.13;4.17;;;17.40;98.00;;;;;;5050134;28;20561;-66
2022/10/12 11:14:33;;;;;;;8.57;3.07;;;17.40;98.00;;;;;;5047630;28;20464;-66
2022/10/12 11:17:04;;;;;;;8.30;3.10;;;17.40;98.00;;;;;;5049479;28;20461;-66
2022/10/12 11:19:37;;;;;;;8.87;4.27;;;17.50;98.00;;;;;;5048611;28;20458;-67
2022/10/12 11:22:11;;;;;;;15.80;3.83;;;17.50;98.00;;;;;;5049566;28;20500;-67
2022/10/12 11:24:44;;;;;;;7.20;4.00;;;17.60;98.00;;;;;;5050002;28;20977;-66
2022/10/12 11:27:15;;;;;;;6.67;3.27;;;17.60;98.00;;;;;;5049764;28;20461;-67
2022/10/12 11:29:42;;;;;;;8.80;3.80;;;17.70;98.00;;;;;;5049856;28;20516;-67
2022/10/12 11:32:22;;;;;;;9.23;3.63;;;17.70;98.00;;;;;;5049511;28;20963;-67
2022/10/12 11:34:55;;;;;;;7.07;3.67;;;17.70;98.00;;;;;;5041916;28;20461;-66
2022/10/12 11:37:31;;;;;;;5.13;2.90;;;17.70;98.00;;;;;;5049330;28;20488;-66
2022/10/12 11:40:02;;;;;;;7.73;3.63;;;17.70;98.00;;;;;;5049127;28;20488;-66
2022/10/12 11:42:32;;;;;;;7.90;4.00;;;17.90;98.00;;;;;;5049183;28;21943;-66
2022/10/12 11:45:05;;;;;;;7.80;3.17;;;17.90;98.00;;;;;;5049272;28;20476;-65
2022/10/12 11:47:36;;;;;;;11.90;3.80;;;18.00;98.00;;;;;;5049239;28;20515;-64
2022/10/12 11:50:06;;;;;;;7.03;3.27;;;18.00;98.00;;;;;;5047008;28;20512;-65
2022/10/12 11:52:42;;;;;;;16.63;4.63;;;17.90;98.00;;;;;;5049063;28;20541;-64
2022/10/12 11:55:27;;;;;;;8.93;4.20;;;18.00;98.00;;;;;;5049007;28;20457;-65
2022/10/12 11:57:58;;;;;;;10.30;4.20;;;17.90;98.00;;;;;;5049123;28;20606;-65
2022/10/12 12:00:37;;;;;;;10.97;4.50;;;17.90;98.00;;;;;;5049068;28;20789;-64
2022/10/12 12:03:16;;;;;;;5.43;3.00;;;17.90;98.00;;;;;;5048815;28;20493;-65
2022/10/12 12:05:43;;;;;;;6.77;3.70;;;18.00;98.00;;;;;;5047765;28;20464;-65
2022/10/12 12:08:44;;;;;;;7.27;3.60;;;18.10;98.00;;;;;;5048907;28;20450;-64
2022/10/12 12:11:21;;;;;;;7.70;3.73;;;18.20;98.00;;;;;;5048703;28;20464;-64
2022/10/12 12:13:51;;;;;;;5.20;3.10;;;18.30;98.00;;;;;;5049108;28;20472;-64
2022/10/12 12:16:26;;;;;;;14.97;3.57;;;18.30;98.00;;;;;;5049052;28;20480;-65
2022/10/12 12:19:41;;;;;;;6.30;3.23;;;18.30;98.00;;;;;;5048984;28;20453;-64
2022/10/12 12:22:30;;;;;;;10.47;4.00;;;18.30;98.00;;;;;;5021585;28;20532;-65
2022/10/12 12:25:18;;;;;;;8.10;3.60;;;18.30;98.00;;;;;;5051206;28;20462;-64
2022/10/12 12:27:50;;;;;;;10.70;4.20;;;18.30;98.00;;;;;;5051982;28;20461;-63
2022/10/12 12:30:29;;;;;;;10.60;4.10;;;18.10;98.00;;;;;;5057610;28;20464;-63
2022/10/12 12:33:00;;;;;;;9.90;3.50;;;18.20;98.00;;;;;;5056593;28;21089;-64
2022/10/12 12:35:31;;;;;;;8.37;3.30;;;18.20;98.00;;;;;;5057722;28;20462;-63
2022/10/12 12:38:04;;;;;;;7.70;3.70;;;18.20;98.00;;;;;;5057982;28;20473;-64
2022/10/12 12:40:36;;;;;;;5.33;3.40;;;18.30;98.00;;;;;;5057631;28;20461;-65
2022/10/12 12:43:52;;;;;;;6.57;3.33;;;18.40;98.00;;;;;;5057579;28;20889;-65
2022/10/12 12:46:20;;;;;;;10.53;3.40;;;18.60;98.00;;;;;;5057668;28;20468;-66
2022/10/12 12:49:01;;;;;;;6.57;3.90;;;18.70;98.00;;;;;;5057594;28;20461;-66
2022/10/12 12:51:40;;;;;;;6.97;3.60;;;18.80;98.00;;;;;;5057468;28;20518;-66
2022/10/12 12:54:16;;;;;;;6.73;3.97;;;18.90;98.00;;;;;;5057575;28;20845;-66
2022/10/12 12:57:05;;;;;;;7.73;4.07;;;18.90;98.00;;;;;;5057547;28;20453;-63
2022/10/12 13:00:05;;;;;;;7.30;3.57;;;19.00;98.00;;;;;;5057793;28;20461;-65
2022/10/12 13:03:09;;;;;;;13.53;4.37;;;19.00;98.00;;;;;;5057440;28;21053;-65
2022/10/12 13:06:23;;;;;;;4.80;2.73;;;19.20;98.00;;;;;;5057805;28;20963;-64